Time;durP1;ratioP1;P1;durP2;ratioP2;P2;SDS_P1;SDS_P2;PMS_P1;PMS_P2;Temp;Humidity;BMP_temperature;BMP_pressure;BME280_temperature;BME280_humidity;BME280_pressure;Samples;Min_cycle;Max_cycle;Signal;HPM_P1;HPM_P2
2023/05/29 00:00:29;;;;;;;13.73;2.60;;;10.60;99.90;;;;;;4912964;28;20122;-80
2023/05/29 00:02:55;;;;;;;11.88;3.20;;;10.60;99.90;;;;;;4905806;28;20050;-79
2023/05/29 00:05:20;;;;;;;12.93;2.50;;;10.60;99.90;;;;;;4912498;28;20044;-78
2023/05/29 00:07:47;;;;;;;10.38;3.13;;;10.60;99.90;;;;;;4909220;28;20071;-82
2023/05/29 00:10:12;;;;;;;10.63;2.42;;;10.60;99.90;;;;;;4895026;28;20048;-79
2023/05/29 00:12:39;;;;;;;13.18;2.47;;;10.60;99.90;;;;;;4909050;28;20044;-83
2023/05/29 00:15:05;;;;;;;10.07;2.70;;;10.60;99.90;;;;;;4893652;29;20071;-77
2023/05/29 00:17:34;;;;;;;14.65;3.55;;;10.50;99.90;;;;;;4905053;28;20043;-78
2023/05/29 00:20:01;;;;;;;11.43;2.58;;;10.50;99.90;;;;;;4893953;28;20048;-78
2023/05/29 00:22:27;;;;;;;8.40;2.63;;;10.50;99.90;;;;;;4936238;28;20051;-80
2023/05/29 00:24:52;;;;;;;9.35;2.33;;;10.50;99.90;;;;;;4908558;28;20046;-79
2023/05/29 00:27:18;;;;;;;8.50;2.65;;;10.40;99.90;;;;;;4902218;28;20036;-83
2023/05/29 00:29:45;;;;;;;6.43;1.83;;;10.50;99.90;;;;;;4910808;28;20036;-79
2023/05/29 00:32:11;;;;;;;11.68;3.03;;;10.50;99.90;;;;;;4893883;28;20040;-79
2023/05/29 00:34:37;;;;;;;10.63;3.38;;;10.40;99.90;;;;;;4926551;28;20141;-80
2023/05/29 00:37:02;;;;;;;10.10;3.08;;;10.40;99.90;;;;;;4892039;28;20063;-78
2023/05/29 00:39:28;;;;;;;13.90;2.70;;;10.40;99.90;;;;;;4890683;29;20123;-79
2023/05/29 00:41:54;;;;;;;12.30;2.85;;;10.40;99.90;;;;;;4926837;29;20149;-83
2023/05/29 00:44:21;;;;;;;11.10;2.83;;;10.40;99.90;;;;;;4923225;28;20048;-78
2023/05/29 00:46:53;;;;;;;8.23;2.40;;;10.30;99.90;;;;;;4905844;28;20141;-77
2023/05/29 00:49:21;;;;;;;12.52;2.67;;;10.40;99.90;;;;;;4909283;29;20380;-77
2023/05/29 00:51:50;;;;;;;14.35;3.03;;;10.40;99.90;;;;;;4923430;29;20047;-80
2023/05/29 00:54:22;;;;;;;10.05;2.42;;;10.40;99.90;;;;;;4925727;28;20387;-78
2023/05/29 00:56:48;;;;;;;11.18;2.50;;;10.40;99.90;;;;;;4924901;28;20112;-81
2023/05/29 00:59:15;;;;;;;10.50;2.53;;;10.40;99.90;;;;;;4906307;28;20528;-80
2023/05/29 01:01:42;;;;;;;16.40;3.00;;;10.40;99.90;;;;;;4914782;28;20043;-81
2023/05/29 01:04:12;;;;;;;13.10;3.67;;;10.40;99.90;;;;;;4907839;29;20472;-79
2023/05/29 01:06:39;;;;;;;11.65;2.53;;;10.40;99.90;;;;;;4928335;28;20051;-79
2023/05/29 01:09:05;;;;;;;15.90;3.28;;;10.50;99.90;;;;;;4908694;29;20090;-79
2023/05/29 01:11:46;;;;;;;13.68;3.17;;;10.50;99.90;;;;;;4926634;29;20047;-80
2023/05/29 01:14:28;;;;;;;10.82;3.10;;;10.50;99.90;;;;;;4908093;29;20089;-78
2023/05/29 01:17:20;;;;;;;14.05;3.17;;;10.50;99.90;;;;;;4928106;28;20055;-79
2023/05/29 01:20:05;;;;;;;9.63;2.92;;;10.50;99.90;;;;;;4929665;28;20144;-78
2023/05/29 01:22:52;;;;;;;15.10;3.25;;;10.50;99.90;;;;;;4930416;28;20047;-77
2023/05/29 01:25:47;;;;;;;10.88;2.70;;;10.50;99.90;;;;;;4926942;28;20130;-76
2023/05/29 01:28:15;;;;;;;10.55;2.50;;;10.50;99.90;;;;;;4913762;28;20050;-79
2023/05/29 01:30:42;;;;;;;8.85;2.30;;;10.40;99.90;;;;;;4895285;28;20042;-75
2023/05/29 01:33:09;;;;;;;12.63;2.97;;;10.40;99.90;;;;;;4925994;28;20071;-80
2023/05/29 01:35:35;;;;;;;15.35;3.22;;;10.30;99.90;;;;;;4905656;29;20054;-78
2023/05/29 01:38:01;;;;;;;16.17;3.00;;;10.30;99.90;;;;;;4900956;28;20428;-78
2023/05/29 01:40:26;;;;;;;11.70;3.13;;;10.30;99.90;;;;;;4887935;29;20059;-79
2023/05/29 01:42:53;;;;;;;10.02;3.35;;;10.50;99.90;;;;;;4926856;28;20047;-82
2023/05/29 01:45:19;;;;;;;18.88;3.42;;;10.50;99.90;;;;;;4928723;29;20052;-78
2023/05/29 01:47:45;;;;;;;12.27;3.00;;;10.50;99.90;;;;;;4879792;28;20040;-79
2023/05/29 01:50:14;;;;;;;12.68;3.30;;;10.30;99.90;;;;;;4937857;28;20052;-77
2023/05/29 01:52:40;;;;;;;12.25;2.92;;;10.30;99.90;;;;;;4932546;29;20067;-79
2023/05/29 01:55:07;;;;;;;13.18;3.35;;;10.30;99.90;;;;;;4919867;28;20046;-78
2023/05/29 01:57:32;;;;;;;16.92;3.65;;;10.30;99.90;;;;;;4914851;28;20113;-82
2023/05/29 01:59:58;;;;;;;13.15;2.78;;;10.30;99.90;;;;;;4910252;28;20036;-81
2023/05/29 02:02:24;;;;;;;17.65;3.42;;;10.30;99.90;;;;;;4887574;28;20096;-78
2023/05/29 02:04:51;;;;;;;15.85;3.22;;;10.30;99.90;;;;;;4882393;29;20454;-77
2023/05/29 02:07:17;;;;;;;16.33;3.35;;;10.30;99.90;;;;;;4967915;28;20651;-79
2023/05/29 02:09:46;;;;;;;17.35;2.97;;;10.30;99.90;;;;;;4923983;28;20054;-81
2023/05/29 02:12:12;;;;;;;9.75;2.60;;;10.30;99.90;;;;;;4907687;29;20134;-81
2023/05/29 02:14:40;;;;;;;12.38;3.22;;;10.20;99.90;;;;;;4895601;28;20840;-81
2023/05/29 02:17:05;;;;;;;15.85;3.30;;;10.20;99.90;;;;;;4916163;28;20404;-80
2023/05/29 02:19:31;;;;;;;7.38;1.92;;;10.20;99.90;;;;;;4897935;28;20039;-77
2023/05/29 02:21:57;;;;;;;14.45;2.95;;;10.20;99.90;;;;;;4911109;29;20488;-78
2023/05/29 02:24:32;;;;;;;9.55;2.75;;;10.20;99.90;;;;;;4911874;28;20063;-76
2023/05/29 02:26:58;;;;;;;;;;;10.20;99.90;;;;;;4875399;29;20071;-82
2023/05/29 02:29:24;;;;;;;17.45;3.90;;;10.20;99.90;;;;;;4909919;29;20012;-78
2023/05/29 02:31:50;;;;;;;10.50;2.97;;;10.20;99.90;;;;;;4929308;28;20047;-80
2023/05/29 02:34:18;;;;;;;9.77;2.90;;;9.30;99.90;;;;;;4939250;28;20377;-77
2023/05/29 02:36:44;;;;;;;12.90;2.92;;;10.20;99.90;;;;;;4912951;28;20043;-79
2023/05/29 02:39:11;;;;;;;12.02;3.05;;;10.10;99.90;;;;;;4893172;29;20047;-79
2023/05/29 02:41:36;;;;;;;14.18;2.88;;;10.10;99.90;;;;;;4901385;28;20040;-77
2023/05/29 02:44:02;;;;;;;9.80;2.15;;;10.00;99.90;;;;;;4894347;28;20051;-76
2023/05/29 02:46:28;;;;;;;18.75;2.95;;;10.00;99.90;;;;;;4908759;28;20079;-78
2023/05/29 02:48:54;;;;;;;11.63;2.20;;;10.00;99.90;;;;;;4911776;29;20411;-83
2023/05/29 02:51:27;;;;;;;8.45;2.50;;;10.00;99.90;;;;;;4909247;29;20043;-79
2023/05/29 02:53:58;;;;;;;10.98;2.45;;;10.00;99.90;;;;;;4908729;29;20102;-78
2023/05/29 02:56:24;;;;;;;12.30;2.50;;;10.10;99.90;;;;;;4930132;29;20051;-77
2023/05/29 02:58:50;;;;;;;12.73;2.63;;;10.00;99.90;;;;;;4930710;29;20043;-80
2023/05/29 03:01:17;;;;;;;11.95;3.15;;;10.00;99.90;;;;;;4930646;29;20039;-79
2023/05/29 03:03:43;;;;;;;10.35;2.67;;;10.00;99.90;;;;;;4907133;29;20165;-77
2023/05/29 03:06:09;;;;;;;11.55;3.20;;;10.00;99.90;;;;;;4927783;29;20145;-79
2023/05/29 03:08:44;;;;;;;15.27;2.83;;;10.00;99.90;;;;;;4924795;28;20044;-81
2023/05/29 03:11:17;;;;;;;;;;;10.10;99.90;;;;;;4928396;29;20087;-77
2023/05/29 03:13:43;;;;;;;7.57;2.13;;;10.20;99.90;;;;;;4927770;29;19927;-80
2023/05/29 03:16:08;;;;;;;8.60;2.05;;;10.10;99.90;;;;;;4926948;29;20050;-77
2023/05/29 03:18:35;;;;;;;13.75;2.78;;;10.10;99.90;;;;;;4911357;29;20046;-77
2023/05/29 03:21:01;;;;;;;11.02;2.65;;;10.10;99.90;;;;;;4903260;29;20431;-80
2023/05/29 03:23:27;;;;;;;10.82;2.88;;;10.20;99.90;;;;;;4929192;28;20055;-79
2023/05/29 03:25:52;;;;;;;10.90;2.40;;;10.20;99.90;;;;;;4900097;28;20044;-77
2023/05/29 03:28:18;;;;;;;9.55;2.67;;;10.20;99.90;;;;;;4906727;29;20036;-80
2023/05/29 03:30:44;;;;;;;6.70;1.98;;;10.20;99.90;;;;;;4927863;28;20045;-79
2023/05/29 03:33:10;;;;;;;7.35;2.40;;;10.20;99.90;;;;;;4907473;28;20036;-81
2023/05/29 03:35:35;;;;;;;10.45;2.22;;;10.20;99.90;;;;;;4926555;28;20097;-80
2023/05/29 03:38:01;;;;;;;8.73;2.60;;;10.30;99.90;;;;;;4914040;28;20043;-83
2023/05/29 03:40:27;;;;;;;7.03;1.98;;;10.30;99.90;;;;;;4909836;28;20043;-79
2023/05/29 03:42:52;;;;;;;6.97;2.08;;;10.40;99.90;;;;;;4903064;28;20083;-80
2023/05/29 03:45:19;;;;;;;10.40;2.50;;;10.40;99.90;;;;;;4926456;29;20388;-78
2023/05/29 03:47:44;;;;;;;9.85;2.17;;;10.40;99.90;;;;;;4894656;28;20086;-78
2023/05/29 03:50:11;;;;;;;9.93;2.67;;;10.50;99.90;;;;;;4914397;28;20428;-79
2023/05/29 03:52:36;;;;;;;12.95;2.53;;;10.60;99.90;;;;;;4914258;28;20093;-78
2023/05/29 03:55:03;;;;;;;7.25;2.33;;;10.60;99.90;;;;;;4911336;28;20047;-80
2023/05/29 03:57:28;;;;;;;17.27;3.08;;;10.80;99.90;;;;;;4926561;29;20082;-77
2023/05/29 03:59:54;;;;;;;10.55;3.03;;;11.00;99.90;;;;;;4927330;28;20072;-80
2023/05/29 04:02:20;;;;;;;11.93;2.95;;;11.10;99.90;;;;;;4955741;28;20377;-80
2023/05/29 04:04:45;;;;;;;13.07;2.72;;;11.30;99.90;;;;;;4900294;28;20055;-79
2023/05/29 04:07:11;;;;;;;11.68;3.10;;;11.30;99.90;;;;;;4903625;29;20032;-79
2023/05/29 04:09:37;;;;;;;12.48;3.58;;;11.40;99.90;;;;;;4926613;28;20036;-82
2023/05/29 04:12:05;;;;;;;12.43;3.00;;;11.50;99.90;;;;;;4909870;28;20048;-80
2023/05/29 04:14:36;;;;;;;11.73;2.70;;;11.50;99.90;;;;;;4909837;28;20051;-84
2023/05/29 04:17:02;;;;;;;10.85;2.70;;;11.50;99.90;;;;;;4895795;28;20047;-80
2023/05/29 04:19:28;;;;;;;9.68;2.55;;;11.60;99.90;;;;;;4910681;28;20051;-84
2023/05/29 04:21:54;;;;;;;11.50;2.78;;;11.60;99.90;;;;;;4927591;29;20063;-78
2023/05/29 04:24:19;;;;;;;9.02;2.65;;;11.60;99.90;;;;;;4911235;28;20495;-82
2023/05/29 04:26:45;;;;;;;8.77;2.25;;;11.60;99.90;;;;;;4923030;29;20048;-77
2023/05/29 04:29:13;;;;;;;11.38;2.75;;;11.60;99.90;;;;;;4910454;28;20047;-76
2023/05/29 04:31:40;;;;;;;12.45;3.25;;;11.60;99.90;;;;;;4910532;28;20082;-80
2023/05/29 04:34:05;;;;;;;7.50;2.60;;;11.50;99.90;;;;;;4893066;29;20113;-77
2023/05/29 04:36:32;;;;;;;9.30;2.63;;;11.60;99.90;;;;;;4908663;29;20043;-80
2023/05/29 04:38:58;;;;;;;11.40;2.38;;;11.70;99.90;;;;;;4958032;28;20044;-79
2023/05/29 04:41:29;;;;;;;15.48;3.13;;;11.80;99.90;;;;;;4901698;28;20040;-81
2023/05/29 04:43:56;;;;;;;12.10;2.65;;;11.80;99.90;;;;;;4910667;29;20040;-83
2023/05/29 04:46:23;;;;;;;8.27;2.25;;;11.80;99.90;;;;;;4910310;28;20090;-82
2023/05/29 04:48:52;;;;;;;8.23;2.22;;;12.00;99.90;;;;;;4896117;28;20532;-82
2023/05/29 04:51:22;;;;;;;13.48;3.25;;;12.10;99.90;;;;;;4914458;28;20143;-82
2023/05/29 04:53:49;;;;;;;12.23;2.38;;;12.20;99.90;;;;;;4912484;28;20047;-80
2023/05/29 04:56:15;;;;;;;7.18;1.92;;;12.40;99.90;;;;;;4921865;28;20447;-81
2023/05/29 04:58:42;;;;;;;10.00;2.33;;;12.60;99.90;;;;;;4910090;29;20048;-79
2023/05/29 05:01:09;;;;;;;16.40;2.70;;;12.80;99.90;;;;;;4903586;28;20592;-78
2023/05/29 05:03:35;;;;;;;12.18;2.97;;;12.70;99.90;;;;;;4925916;28;20118;-79
2023/05/29 05:06:06;;;;;;;10.40;2.50;;;12.80;99.90;;;;;;4912081;28;20123;-78
2023/05/29 05:08:32;;;;;;;16.35;3.03;;;12.80;99.90;;;;;;4905170;28;20034;-80
2023/05/29 05:10:59;;;;;;;11.77;2.65;;;12.80;99.90;;;;;;4907872;28;20697;-75
2023/05/29 05:13:25;;;;;;;9.40;3.05;;;12.90;99.90;;;;;;4927506;28;20043;-82
2023/05/29 05:15:51;;;;;;;9.40;2.63;;;13.00;99.90;;;;;;4922183;28;20040;-76
2023/05/29 05:18:16;;;;;;;10.68;2.78;;;13.10;99.90;;;;;;4893208;28;20102;-79
2023/05/29 05:20:42;;;;;;;11.55;3.00;;;13.10;99.90;;;;;;4904676;28;20070;-78
2023/05/29 05:23:08;;;;;;;9.63;2.58;;;13.20;99.90;;;;;;4893729;28;20043;-78
2023/05/29 05:25:35;;;;;;;8.95;2.80;;;13.30;99.90;;;;;;4903277;28;20152;-78
2023/05/29 05:28:02;;;;;;;11.43;2.88;;;13.30;99.90;;;;;;4901895;28;20087;-78
2023/05/29 05:30:28;;;;;;;8.13;2.72;;;13.30;99.90;;;;;;4906343;29;20091;-79
2023/05/29 05:32:54;;;;;;;9.77;4.13;;;13.50;99.90;;;;;;4906351;28;20086;-76
2023/05/29 05:35:20;;;;;;;13.10;2.75;;;13.50;99.90;;;;;;4924074;28;20051;-80
2023/05/29 05:37:46;;;;;;;13.20;3.28;;;13.50;99.90;;;;;;4895689;29;20044;-77
2023/05/29 05:40:14;;;;;;;12.23;3.25;;;13.60;99.90;;;;;;4892813;29;20134;-81
2023/05/29 05:42:40;;;;;;;11.00;2.70;;;13.80;99.90;;;;;;4926779;28;20040;-78
2023/05/29 05:45:06;;;;;;;11.52;2.85;;;13.90;99.90;;;;;;4894832;29;20048;-75
2023/05/29 05:47:33;;;;;;;12.30;3.35;;;14.00;99.90;;;;;;4928004;28;20181;-77
2023/05/29 05:49:58;;;;;;;12.48;3.03;;;14.00;99.90;;;;;;4928476;29;20040;-80
2023/05/29 05:52:25;;;;;;;13.25;3.20;;;14.10;99.90;;;;;;4914114;29;20046;-76
2023/05/29 05:54:51;;;;;;;14.43;2.92;;;14.10;99.90;;;;;;4914058;28;20459;-78
2023/05/29 05:57:17;;;;;;;17.42;4.00;;;14.20;99.90;;;;;;4907413;28;20075;-76
2023/05/29 05:59:43;;;;;;;10.13;2.80;;;14.20;99.90;;;;;;4911876;29;20079;-78
2023/05/29 06:02:08;;;;;;;16.75;4.05;;;14.30;99.90;;;;;;4928442;28;20036;-82
2023/05/29 06:04:34;;;;;;;12.18;3.20;;;14.40;99.90;;;;;;4912635;28;20040;-81
2023/05/29 06:07:00;;;;;;;11.93;3.10;;;14.40;99.90;;;;;;4907058;29;20039;-78
2023/05/29 06:09:26;;;;;;;12.35;3.42;;;14.40;99.90;;;;;;4910594;29;20044;-84
2023/05/29 06:11:51;;;;;;;11.13;3.65;;;14.30;99.90;;;;;;4914382;29;20067;-80
2023/05/29 06:14:17;;;;;;;9.90;3.10;;;14.40;99.90;;;;;;4913369;28;20613;-83
2023/05/29 06:16:43;;;;;;;16.33;3.75;;;14.40;99.90;;;;;;4914814;28;20058;-87
2023/05/29 06:19:10;;;;;;;15.02;3.45;;;14.20;99.90;;;;;;4927836;29;20036;-83
2023/05/29 06:21:35;;;;;;;13.55;3.42;;;14.40;99.90;;;;;;4892145;29;20082;-75
2023/05/29 06:24:01;;;;;;;12.88;3.28;;;14.40;99.90;;;;;;4907285;28;20036;-79
2023/05/29 06:26:27;;;;;;;10.60;3.38;;;14.30;99.90;;;;;;4901651;28;21035;-76
2023/05/29 06:28:53;;;;;;;13.63;3.25;;;14.50;99.90;;;;;;4921772;29;20174;-76
2023/05/29 06:31:19;;;;;;;13.93;3.45;;;14.50;99.90;;;;;;4923198;28;20430;-77
2023/05/29 06:33:45;;;;;;;15.43;3.65;;;14.50;99.90;;;;;;4924237;28;20039;-78
2023/05/29 06:36:11;;;;;;;16.13;3.67;;;14.50;99.90;;;;;;4927448;28;20090;-76
2023/05/29 06:38:37;;;;;;;12.07;3.42;;;14.50;99.90;;;;;;4920177;28;20456;-75
2023/05/29 06:41:03;;;;;;;14.40;3.50;;;14.60;99.90;;;;;;4905171;29;20039;-76
2023/05/29 06:43:29;;;;;;;13.75;3.50;;;14.60;99.90;;;;;;4908346;28;20097;-78
2023/05/29 06:45:54;;;;;;;11.02;3.22;;;14.70;99.90;;;;;;4892869;28;20199;-75
2023/05/29 06:48:20;;;;;;;10.45;2.58;;;14.60;99.90;;;;;;4888070;28;20542;-84
2023/05/29 06:50:47;;;;;;;11.98;3.03;;;14.70;99.90;;;;;;4973997;28;20052;-76
2023/05/29 06:53:13;;;;;;;12.88;3.00;;;14.80;99.90;;;;;;4901002;29;20040;-78
2023/05/29 06:55:42;;;;;;;9.40;3.00;;;15.00;99.90;;;;;;4914096;28;20044;-77
2023/05/29 06:58:07;;;;;;;13.52;3.17;;;15.20;99.90;;;;;;4906327;28;20048;-77
2023/05/29 07:00:33;;;;;;;18.33;3.60;;;15.40;99.90;;;;;;4911081;29;20035;-76
2023/05/29 07:02:59;;;;;;;15.57;3.60;;;15.20;99.90;;;;;;4929884;28;20459;-79
2023/05/29 07:05:27;;;;;;;14.32;3.53;;;15.30;99.90;;;;;;4929646;28;20043;-79
2023/05/29 07:07:52;;;;;;;10.73;3.47;;;15.10;99.90;;;;;;4908637;28;20063;-76
2023/05/29 07:10:21;;;;;;;12.63;3.63;;;15.00;99.90;;;;;;4923674;28;20079;-77
2023/05/29 07:12:47;;;;;;;11.88;3.38;;;15.30;99.90;;;;;;4913287;28;20082;-76
2023/05/29 07:15:12;;;;;;;12.15;4.03;;;15.30;99.90;;;;;;4914006;28;20141;-77
2023/05/29 07:17:38;;;;;;;13.65;3.47;;;15.30;99.90;;;;;;4927998;29;20059;-79
2023/05/29 07:20:07;;;;;;;10.55;2.97;;;15.50;99.90;;;;;;4892427;28;20044;-78
2023/05/29 07:22:34;;;;;;;12.52;3.40;;;15.70;99.90;;;;;;4942972;28;20039;-77
2023/05/29 07:25:00;;;;;;;15.65;3.90;;;15.50;99.90;;;;;;4926273;29;20039;-80
2023/05/29 07:27:26;;;;;;;10.38;2.97;;;15.90;99.90;;;;;;4915428;28;20062;-79
2023/05/29 07:29:52;;;;;;;15.10;3.15;;;15.90;99.90;;;;;;4909733;28;20043;-75
2023/05/29 07:32:17;;;;;;;12.40;3.20;;;15.80;99.90;;;;;;4931150;28;20058;-80
2023/05/29 07:34:43;;;;;;;13.32;3.53;;;15.90;99.90;;;;;;4929803;28;20054;-75
2023/05/29 07:37:09;;;;;;;10.20;3.10;;;15.70;99.90;;;;;;4908018;29;20048;-78
2023/05/29 07:39:35;;;;;;;11.23;2.92;;;15.80;99.90;;;;;;4908840;28;20086;-78
2023/05/29 07:42:02;;;;;;;13.60;3.22;;;15.60;99.90;;;;;;4914680;28;20361;-78
2023/05/29 07:44:28;;;;;;;15.43;3.10;;;15.80;99.90;;;;;;4922778;29;20059;-78
2023/05/29 07:46:53;;;;;;;14.80;3.33;;;16.10;99.90;;;;;;4923849;29;20043;-79
2023/05/29 07:49:20;;;;;;;14.13;3.30;;;15.80;99.90;;;;;;4905503;29;20047;-78
2023/05/29 07:51:46;;;;;;;14.95;3.50;;;15.90;99.90;;;;;;4897289;28;20043;-77
2023/05/29 07:54:11;;;;;;;12.98;2.65;;;16.00;99.90;;;;;;4908424;28;20094;-80
2023/05/29 07:56:38;;;;;;;10.18;3.50;;;16.20;99.90;;;;;;4910903;28;20051;-75
2023/05/29 07:59:05;;;;;;;11.48;3.05;;;16.50;99.90;;;;;;4930023;28;20044;-77
2023/05/29 08:01:31;;;;;;;12.90;3.75;;;16.60;99.90;;;;;;4924729;28;20039;-79
2023/05/29 08:03:56;;;;;;;10.95;3.10;;;16.60;99.90;;;;;;4895017;28;20039;-80
2023/05/29 08:06:22;;;;;;;14.63;3.03;;;16.70;99.90;;;;;;4925951;28;20050;-80
2023/05/29 08:08:48;;;;;;;21.48;3.38;;;16.80;99.90;;;;;;4903867;29;20051;-78
2023/05/29 08:11:13;;;;;;;13.25;3.17;;;16.90;99.90;;;;;;4911416;28;20040;-77
2023/05/29 08:13:39;;;;;;;16.88;3.15;;;16.80;99.90;;;;;;4927636;29;20178;-78
2023/05/29 08:16:06;;;;;;;15.85;3.53;;;16.90;99.90;;;;;;4909128;29;20558;-76
2023/05/29 08:18:32;;;;;;;12.05;3.15;;;16.70;99.90;;;;;;4879946;28;20050;-78
2023/05/29 08:20:58;;;;;;;15.00;3.60;;;16.70;99.90;;;;;;4907866;28;20047;-78
2023/05/29 08:23:24;;;;;;;13.30;3.38;;;16.60;99.90;;;;;;4913754;28;20127;-76
2023/05/29 08:25:50;;;;;;;15.70;3.22;;;16.60;99.90;;;;;;4921065;28;20126;-80
2023/05/29 08:28:16;;;;;;;13.23;3.10;;;16.50;99.90;;;;;;4912090;29;20043;-75
2023/05/29 08:30:42;;;;;;;8.18;3.10;;;16.80;99.90;;;;;;4928085;29;20131;-78
2023/05/29 08:33:08;;;;;;;16.77;3.15;;;16.60;99.90;;;;;;4927689;28;20047;-78
2023/05/29 08:35:34;;;;;;;16.05;3.03;;;16.70;99.90;;;;;;4908776;29;20395;-76
2023/05/29 08:38:00;;;;;;;13.25;3.55;;;16.90;99.90;;;;;;4897247;28;20047;-78
2023/05/29 08:40:26;;;;;;;17.05;4.25;;;16.80;99.90;;;;;;4914288;28;20043;-77
2023/05/29 08:42:58;;;;;;;14.18;3.75;;;16.90;99.90;;;;;;4927609;29;20044;-73
2023/05/29 08:45:24;;;;;;;14.60;3.15;;;16.70;99.90;;;;;;4968476;28;20043;-76
2023/05/29 08:47:54;;;;;;;9.75;2.83;;;17.00;99.90;;;;;;4906064;28;20058;-80
2023/05/29 08:50:21;;;;;;;16.95;3.70;;;16.40;99.90;;;;;;4925178;29;20058;-76
2023/05/29 08:52:47;;;;;;;11.82;3.60;;;16.80;99.90;;;;;;4910771;28;20071;-75
2023/05/29 08:55:13;;;;;;;11.75;3.40;;;16.60;99.90;;;;;;4896139;28;20055;-77
2023/05/29 08:57:40;;;;;;;13.27;3.03;;;17.00;99.90;;;;;;4910753;28;20042;-74
2023/05/29 09:00:12;;;;;;;12.77;3.58;;;17.20;99.90;;;;;;4945389;28;20084;-78
2023/05/29 09:02:45;;;;;;;14.10;2.50;;;17.10;99.90;;;;;;4906237;29;20051;-78
2023/05/29 09:05:12;;;;;;;12.57;3.50;;;16.80;99.90;;;;;;4926417;29;20068;-74
2023/05/29 09:07:39;;;;;;;11.57;3.50;;;17.00;99.90;;;;;;4927494;28;20484;-77
2023/05/29 09:10:09;;;;;;;11.90;3.15;;;17.30;99.90;;;;;;4925665;29;20664;-75
2023/05/29 09:12:35;;;;;;;19.70;3.65;;;17.60;99.90;;;;;;4910825;29;20066;-78
2023/05/29 09:15:01;;;;;;;10.95;3.28;;;17.30;99.90;;;;;;4927202;29;20435;-76
2023/05/29 09:17:34;;;;;;;13.52;3.60;;;17.40;99.90;;;;;;4928148;28;20067;-79
2023/05/29 09:20:00;;;;;;;10.73;3.25;;;17.50;99.90;;;;;;4932448;28;20124;-74
2023/05/29 09:22:26;;;;;;;10.85;3.03;;;17.70;99.90;;;;;;4911326;28;20459;-80
2023/05/29 09:24:52;;;;;;;11.25;2.83;;;17.80;99.90;;;;;;4899387;28;20075;-77
2023/05/29 09:27:20;;;;;;;11.73;3.83;;;17.80;99.90;;;;;;4895504;28;20032;-75
2023/05/29 09:29:47;;;;;;;12.23;3.08;;;17.70;99.90;;;;;;4909365;28;20087;-77
2023/05/29 09:32:16;;;;;;;12.25;3.13;;;18.00;99.90;;;;;;4907075;29;20127;-75
2023/05/29 09:34:43;;;;;;;10.55;3.10;;;18.00;99.90;;;;;;4929885;29;20082;-76
2023/05/29 09:37:11;;;;;;;12.18;3.67;;;18.10;99.90;;;;;;4927461;29;20508;-75
2023/05/29 09:39:53;;;;;;;17.10;4.13;;;18.30;99.90;;;;;;4897243;28;20476;-76
2023/05/29 09:42:19;;;;;;;15.73;3.65;;;18.30;99.90;;;;;;4929353;29;20040;-73
2023/05/29 09:44:51;;;;;;;12.10;3.00;;;18.30;99.90;;;;;;4913811;29;20106;-75
2023/05/29 09:47:18;;;;;;;11.20;3.55;;;18.30;99.90;;;;;;4914028;28;20134;-78
2023/05/29 09:49:46;;;;;;;12.35;3.45;;;18.50;99.90;;;;;;4922833;29;20050;-76
2023/05/29 09:52:16;;;;;;;14.10;3.33;;;18.60;99.90;;;;;;4904560;29;20046;-79
2023/05/29 09:54:45;;;;;;;11.57;2.85;;;18.30;99.90;;;;;;4930890;28;20138;-74
2023/05/29 09:57:16;;;;;;;12.95;3.10;;;18.80;99.90;;;;;;4909653;29;20047;-79
2023/05/29 09:59:51;;;;;;;13.45;4.38;;;19.10;99.90;;;;;;4923976;29;20134;-75
2023/05/29 10:02:18;;;;;;;10.02;3.17;;;19.20;99.90;;;;;;4907966;29;20058;-82
2023/05/29 10:04:44;;;;;;;14.73;3.42;;;18.70;99.90;;;;;;4911968;29;20115;-75
2023/05/29 10:07:20;;;;;;;10.32;3.58;;;18.90;99.90;;;;;;4923214;29;20048;-75
2023/05/29 10:09:50;;;;;;;15.15;3.53;;;19.00;99.90;;;;;;4926577;29;20058;-77
2023/05/29 10:12:20;;;;;;;14.65;3.38;;;19.20;99.90;;;;;;4912644;29;20059;-74
2023/05/29 10:14:53;;;;;;;10.95;3.10;;;19.10;99.90;;;;;;4935046;28;20490;-76
2023/05/29 10:17:23;;;;;;;9.40;2.53;;;18.70;99.90;;;;;;4913279;29;20203;-76
2023/05/29 10:19:52;;;;;;;13.63;3.40;;;19.00;99.90;;;;;;4904798;29;20054;-77
2023/05/29 10:22:24;;;;;;;13.20;3.13;;;19.60;99.90;;;;;;4912967;29;20077;-75
2023/05/29 10:24:52;;;;;;;8.52;3.33;;;19.90;99.90;;;;;;4929280;29;20040;-78
2023/05/29 10:27:18;;;;;;;10.18;3.58;;;20.10;99.90;;;;;;4882696;28;20037;-75
2023/05/29 10:29:53;;;;;;;10.40;2.75;;;19.90;99.90;;;;;;4925419;29;20185;-74
2023/05/29 10:32:27;;;;;;;15.63;4.47;;;20.00;99.90;;;;;;4901968;28;20054;-76
2023/05/29 10:35:25;;;;;;;9.80;2.72;;;19.40;99.90;;;;;;4926633;29;20491;-73
2023/05/29 10:38:09;;;;;;;8.93;3.10;;;19.50;99.90;;;;;;4913049;29;20142;-74
2023/05/29 10:40:35;;;;;;;11.10;2.88;;;19.50;99.50;;;;;;4927494;29;20063;-73
2023/05/29 10:43:00;;;;;;;9.18;3.08;;;19.40;99.90;;;;;;4902313;28;20055;-77
2023/05/29 10:45:32;;;;;;;8.52;2.50;;;18.60;99.90;;;;;;4907683;28;20068;-73
2023/05/29 10:48:07;;;;;;;9.82;2.90;;;18.60;99.90;;;;;;4924628;28;20097;-74
2023/05/29 10:50:46;;;;;;;11.55;3.38;;;19.00;99.90;;;;;;4922047;29;20403;-73
2023/05/29 10:53:18;;;;;;;9.10;2.65;;;19.40;99.90;;;;;;4922329;29;20048;-73
2023/05/29 10:55:47;;;;;;;12.13;2.70;;;19.40;97.20;;;;;;4907861;29;20119;-76
2023/05/29 10:58:24;;;;;;;7.82;2.90;;;20.10;99.90;;;;;;4908365;29;20120;-77
2023/05/29 11:00:53;;;;;;;6.68;2.67;;;19.80;73.70;;;;;;4928360;29;20039;-74
2023/05/29 11:03:23;;;;;;;8.68;2.78;;;19.90;99.40;;;;;;4906779;28;20143;-72
2023/05/29 11:06:17;;;;;;;11.70;2.85;;;19.50;98.40;;;;;;4911769;29;20047;-78
2023/05/29 11:08:52;;;;;;;8.50;2.40;;;19.40;92.80;;;;;;4924983;29;20040;-73
2023/05/29 11:11:27;;;;;;;12.38;3.33;;;19.60;94.00;;;;;;4928192;29;20587;-72
2023/05/29 11:13:55;;;;;;;11.77;3.53;;;18.90;92.80;;;;;;4925812;29;20364;-76
2023/05/29 11:16:29;;;;;;;9.13;2.88;;;19.60;99.90;;;;;;4910395;29;20373;-76
2023/05/29 11:18:55;;;;;;;10.32;4.07;;;19.30;86.20;;;;;;4926996;29;20381;-76
2023/05/29 11:21:38;;;;;;;9.38;2.72;;;19.60;56.90;;;;;;4945683;28;20043;-77
2023/05/29 11:24:06;;;;;;;12.52;3.55;;;19.60;83.50;;;;;;4910206;28;20047;-75
2023/05/29 11:26:32;;;;;;;8.45;2.92;;;18.90;95.70;;;;;;4903814;29;20168;-75
2023/05/29 11:29:06;;;;;;;12.43;3.30;;;19.20;98.50;;;;;;4908761;28;20051;-76
2023/05/29 11:31:34;;;;;;;11.23;3.10;;;18.80;93.10;;;;;;4895554;29;20413;-73
2023/05/29 11:34:04;;;;;;;11.38;3.50;;;19.00;96.10;;;;;;4924927;29;20059;-76
2023/05/29 11:36:32;;;;;;;9.75;2.85;;;19.40;93.30;;;;;;4911462;28;20052;-77
2023/05/29 11:38:58;;;;;;;12.88;3.17;;;19.80;80.00;;;;;;4893237;29;20047;-75
2023/05/29 11:41:24;;;;;;;10.95;2.97;;;19.90;75.90;;;;;;4926378;28;20051;-79
2023/05/29 11:44:05;;;;;;;9.70;2.65;;;19.50;67.10;;;;;;4919873;28;20137;-77
2023/05/29 11:46:32;;;;;;;16.05;2.92;;;19.50;54.70;;;;;;4906075;28;20056;-75
2023/05/29 11:49:01;;;;;;;9.02;2.80;;;20.40;82.20;;;;;;4910907;28;20048;-74
2023/05/29 11:51:27;;;;;;;8.40;2.72;;;20.70;62.50;;;;;;4906137;29;20044;-76
2023/05/29 11:53:58;;;;;;;7.53;3.03;;;20.60;44.90;;;;;;4900725;29;20044;-80
2023/05/29 11:56:27;;;;;;;8.68;2.95;;;20.80;57.20;;;;;;4891247;28;21110;-74
2023/05/29 11:58:59;;;;;;;7.57;3.05;;;19.90;17.80;;;;;;4929037;29;20624;-79
2023/05/29 12:01:26;;;;;;;8.48;2.67;;;20.00;34.90;;;;;;4914595;29;20051;-78
2023/05/29 12:03:52;;;;;;;15.98;3.08;;;19.90;41.10;;;;;;4974484;28;20054;-76
2023/05/29 12:06:38;;;;;;;10.90;3.20;;;20.10;24.80;;;;;;4921198;28;20400;-75
2023/05/29 12:09:05;;;;;;;10.98;3.35;;;20.60;12.50;;;;;;4885664;29;20113;-76
2023/05/29 12:11:31;;;;;;;9.00;3.30;;;19.40;15.40;;;;;;4910723;28;20047;-75
2023/05/29 12:13:59;;;;;;;6.03;2.13;;;19.20;40.40;;;;;;4911126;28;20051;-75
2023/05/29 12:16:28;;;;;;;9.85;3.03;;;19.50;25.70;;;;;;4906075;28;20047;-75
2023/05/29 12:18:55;;;;;;;9.25;3.00;;;20.00;37.00;;;;;;4906570;28;20560;-76
2023/05/29 12:21:22;;;;;;;11.32;3.38;;;20.10;25.50;;;;;;4898236;29;20055;-76
2023/05/29 12:23:51;;;;;;;8.10;2.78;;;19.70;18.80;;;;;;4928080;28;20051;-73
2023/05/29 12:26:17;;;;;;;8.10;2.75;;;20.30;8.40;;;;;;4907215;29;20043;-73
2023/05/29 12:28:45;;;;;;;6.45;2.63;;;20.40;1.00;;;;;;4926232;29;20490;-75
2023/05/29 12:31:11;;;;;;;8.38;2.80;;;20.50;1.00;;;;;;4910181;29;20119;-72
2023/05/29 12:33:42;;;;;;;10.32;2.40;;;20.50;1.00;;;;;;4928711;28;20047;-73
2023/05/29 12:36:10;;;;;;;9.70;3.05;;;19.90;1.00;;;;;;4921147;29;20040;-74
2023/05/29 12:38:50;;;;;;;5.30;2.08;;;19.90;1.00;;;;;;4927795;28;20118;-77
2023/05/29 12:41:28;;;;;;;9.80;2.35;;;20.50;1.00;;;;;;4900137;29;20047;-76
2023/05/29 12:43:57;;;;;;;7.78;2.17;;;20.80;1.00;;;;;;4924236;29;20075;-77